sensor_id;sensor_type;location;lat;lon;timestamp;P1;durP1;ratioP1;P2;durP2;ratioP2
24102;SDS011;12278;53.058;9.028;2023-05-10T00:03:24;6.00;;;3.00;;
24102;SDS011;12278;53.058;9.028;2023-05-10T00:07:24;7.25;;;3.97;;
24102;SDS011;12278;53.058;9.028;2023-05-10T00:11:25;4.13;;;3.10;;
24102;SDS011;12278;53.058;9.028;2023-05-10T00:15:26;4.55;;;3.45;;
24102;SDS011;12278;53.058;9.028;2023-05-10T00:19:26;4.75;;;2.70;;
24102;SDS011;12278;53.058;9.028;2023-05-10T00:23:27;3.17;;;2.72;;
24102;SDS011;12278;53.058;9.028;2023-05-10T00:27:28;4.57;;;2.83;;
24102;SDS011;12278;53.058;9.028;2023-05-10T00:31:28;3.53;;;2.92;;
24102;SDS011;12278;53.058;9.028;2023-05-10T00:35:29;6.25;;;3.53;;
24102;SDS011;12278;53.058;9.028;2023-05-10T00:39:30;7.05;;;4.68;;
24102;SDS011;12278;53.058;9.028;2023-05-10T00:43:30;7.93;;;4.07;;
24102;SDS011;12278;53.058;9.028;2023-05-10T00:47:31;8.18;;;4.00;;
24102;SDS011;12278;53.058;9.028;2023-05-10T00:51:32;5.53;;;3.13;;
24102;SDS011;12278;53.058;9.028;2023-05-10T00:55:33;4.38;;;3.03;;
24102;SDS011;12278;53.058;9.028;2023-05-10T00:59:34;2.97;;;2.58;;
24102;SDS011;12278;53.058;9.028;2023-05-10T01:03:35;3.95;;;2.90;;
24102;SDS011;12278;53.058;9.028;2023-05-10T01:07:36;3.83;;;2.40;;
24102;SDS011;12278;53.058;9.028;2023-05-10T01:11:37;4.20;;;2.67;;
24102;SDS011;12278;53.058;9.028;2023-05-10T01:15:40;4.40;;;2.58;;
24102;SDS011;12278;53.058;9.028;2023-05-10T01:19:41;3.50;;;2.50;;
24102;SDS011;12278;53.058;9.028;2023-05-10T01:23:45;4.30;;;2.90;;
24102;SDS011;12278;53.058;9.028;2023-05-10T01:36:30;3.53;;;2.88;;
24102;SDS011;12278;53.058;9.028;2023-05-10T01:40:36;5.13;;;3.28;;
24102;SDS011;12278;53.058;9.028;2023-05-10T01:48:51;3.58;;;3.05;;
24102;SDS011;12278;53.058;9.028;2023-05-10T01:52:54;3.38;;;3.17;;
24102;SDS011;12278;53.058;9.028;2023-05-10T01:57:02;3.70;;;3.00;;
24102;SDS011;12278;53.058;9.028;2023-05-10T02:01:07;3.67;;;2.90;;
24102;SDS011;12278;53.058;9.028;2023-05-10T02:05:09;3.50;;;3.20;;
24102;SDS011;12278;53.058;9.028;2023-05-10T02:09:13;3.63;;;2.90;;
24102;SDS011;12278;53.058;9.028;2023-05-10T02:13:16;3.92;;;2.83;;
24102;SDS011;12278;53.058;9.028;2023-05-10T02:17:17;3.25;;;2.95;;
24102;SDS011;12278;53.058;9.028;2023-05-10T02:21:20;3.33;;;3.03;;
24102;SDS011;12278;53.058;9.028;2023-05-10T02:25:21;5.60;;;2.80;;
24102;SDS011;12278;53.058;9.028;2023-05-10T02:29:25;4.65;;;3.50;;
24102;SDS011;12278;53.058;9.028;2023-05-10T02:33:27;4.13;;;3.17;;
24102;SDS011;12278;53.058;9.028;2023-05-10T02:37:29;6.97;;;3.05;;
24102;SDS011;12278;53.058;9.028;2023-05-10T02:41:30;3.08;;;2.80;;
24102;SDS011;12278;53.058;9.028;2023-05-10T02:45:32;3.08;;;2.70;;
24102;SDS011;12278;53.058;9.028;2023-05-10T02:49:35;3.20;;;2.90;;
24102;SDS011;12278;53.058;9.028;2023-05-10T02:53:36;3.85;;;3.08;;
24102;SDS011;12278;53.058;9.028;2023-05-10T02:57:41;3.83;;;3.42;;
24102;SDS011;12278;53.058;9.028;2023-05-10T03:01:52;4.68;;;3.42;;
24102;SDS011;12278;53.058;9.028;2023-05-10T03:05:53;4.97;;;2.95;;
24102;SDS011;12278;53.058;9.028;2023-05-10T03:09:55;4.18;;;3.35;;
24102;SDS011;12278;53.058;9.028;2023-05-10T03:18:09;3.50;;;3.10;;
24102;SDS011;12278;53.058;9.028;2023-05-10T03:22:10;6.25;;;3.58;;
24102;SDS011;12278;53.058;9.028;2023-05-10T03:26:15;5.05;;;3.58;;
24102;SDS011;12278;53.058;9.028;2023-05-10T03:30:20;5.20;;;3.15;;
24102;SDS011;12278;53.058;9.028;2023-05-10T03:34:24;3.10;;;2.80;;
24102;SDS011;12278;53.058;9.028;2023-05-10T03:38:25;4.22;;;3.42;;
24102;SDS011;12278;53.058;9.028;2023-05-10T03:42:26;5.05;;;3.40;;
24102;SDS011;12278;53.058;9.028;2023-05-10T03:46:26;4.45;;;3.53;;
24102;SDS011;12278;53.058;9.028;2023-05-10T03:50:27;3.95;;;3.65;;
24102;SDS011;12278;53.058;9.028;2023-05-10T03:54:28;6.07;;;3.63;;
24102;SDS011;12278;53.058;9.028;2023-05-10T03:58:28;5.57;;;3.67;;
24102;SDS011;12278;53.058;9.028;2023-05-10T04:02:29;4.00;;;3.63;;
24102;SDS011;12278;53.058;9.028;2023-05-10T04:06:30;4.38;;;3.97;;
24102;SDS011;12278;53.058;9.028;2023-05-10T04:10:31;3.92;;;3.47;;
24102;SDS011;12278;53.058;9.028;2023-05-10T04:14:32;4.38;;;3.72;;
24102;SDS011;12278;53.058;9.028;2023-05-10T04:18:33;5.13;;;3.85;;
24102;SDS011;12278;53.058;9.028;2023-05-10T04:22:34;4.93;;;3.97;;
24102;SDS011;12278;53.058;9.028;2023-05-10T04:26:34;6.70;;;4.20;;
24102;SDS011;12278;53.058;9.028;2023-05-10T04:30:35;5.97;;;4.30;;
24102;SDS011;12278;53.058;9.028;2023-05-10T04:34:36;5.60;;;3.75;;
24102;SDS011;12278;53.058;9.028;2023-05-10T04:38:37;5.03;;;4.15;;
24102;SDS011;12278;53.058;9.028;2023-05-10T04:42:39;5.03;;;4.00;;
24102;SDS011;12278;53.058;9.028;2023-05-10T04:46:41;5.85;;;4.45;;
24102;SDS011;12278;53.058;9.028;2023-05-10T04:50:41;5.63;;;4.68;;
24102;SDS011;12278;53.058;9.028;2023-05-10T04:54:42;5.53;;;4.57;;
24102;SDS011;12278;53.058;9.028;2023-05-10T04:58:43;4.97;;;4.50;;
24102;SDS011;12278;53.058;9.028;2023-05-10T05:02:44;5.97;;;4.25;;
24102;SDS011;12278;53.058;9.028;2023-05-10T05:06:45;5.60;;;4.60;;
24102;SDS011;12278;53.058;9.028;2023-05-10T05:10:46;5.97;;;4.72;;
24102;SDS011;12278;53.058;9.028;2023-05-10T05:14:50;5.28;;;4.78;;
24102;SDS011;12278;53.058;9.028;2023-05-10T05:18:50;5.45;;;4.95;;
24102;SDS011;12278;53.058;9.028;2023-05-10T05:22:51;6.05;;;4.90;;
24102;SDS011;12278;53.058;9.028;2023-05-10T05:26:52;5.70;;;5.20;;
24102;SDS011;12278;53.058;9.028;2023-05-10T05:30:53;6.72;;;6.03;;
24102;SDS011;12278;53.058;9.028;2023-05-10T05:34:53;6.28;;;5.60;;
24102;SDS011;12278;53.058;9.028;2023-05-10T05:38:54;8.13;;;5.97;;
24102;SDS011;12278;53.058;9.028;2023-05-10T05:42:55;6.45;;;5.85;;
24102;SDS011;12278;53.058;9.028;2023-05-10T05:46:55;6.85;;;5.72;;
24102;SDS011;12278;53.058;9.028;2023-05-10T05:50:56;9.05;;;6.10;;
24102;SDS011;12278;53.058;9.028;2023-05-10T05:54:57;7.25;;;5.90;;
24102;SDS011;12278;53.058;9.028;2023-05-10T05:58:58;9.45;;;5.70;;
24102;SDS011;12278;53.058;9.028;2023-05-10T06:02:59;6.95;;;5.88;;
24102;SDS011;12278;53.058;9.028;2023-05-10T06:06:59;7.57;;;6.68;;
24102;SDS011;12278;53.058;9.028;2023-05-10T06:11:00;8.68;;;6.13;;
24102;SDS011;12278;53.058;9.028;2023-05-10T06:15:01;6.90;;;5.88;;
24102;SDS011;12278;53.058;9.028;2023-05-10T06:19:02;6.35;;;5.70;;
24102;SDS011;12278;53.058;9.028;2023-05-10T06:23:03;7.68;;;6.88;;
24102;SDS011;12278;53.058;9.028;2023-05-10T06:27:03;7.05;;;6.43;;
24102;SDS011;12278;53.058;9.028;2023-05-10T06:31:04;8.55;;;6.28;;
24102;SDS011;12278;53.058;9.028;2023-05-10T06:35:06;14.10;;;8.27;;
24102;SDS011;12278;53.058;9.028;2023-05-10T06:39:07;7.68;;;6.93;;
24102;SDS011;12278;53.058;9.028;2023-05-10T06:43:08;7.88;;;6.78;;
24102;SDS011;12278;53.058;9.028;2023-05-10T06:47:10;7.80;;;6.63;;
24102;SDS011;12278;53.058;9.028;2023-05-10T06:51:11;7.97;;;7.10;;
24102;SDS011;12278;53.058;9.028;2023-05-10T06:55:11;8.77;;;7.53;;
24102;SDS011;12278;53.058;9.028;2023-05-10T06:59:12;8.15;;;6.85;;
24102;SDS011;12278;53.058;9.028;2023-05-10T07:03:14;8.88;;;7.25;;
24102;SDS011;12278;53.058;9.028;2023-05-10T07:07:15;7.70;;;6.80;;
24102;SDS011;12278;53.058;9.028;2023-05-10T07:11:16;7.22;;;6.53;;
24102;SDS011;12278;53.058;9.028;2023-05-10T07:15:17;8.75;;;7.85;;
24102;SDS011;12278;53.058;9.028;2023-05-10T07:19:18;9.32;;;7.15;;
24102;SDS011;12278;53.058;9.028;2023-05-10T07:23:19;9.88;;;7.55;;
24102;SDS011;12278;53.058;9.028;2023-05-10T07:27:20;9.80;;;8.23;;
24102;SDS011;12278;53.058;9.028;2023-05-10T07:31:20;12.60;;;8.23;;
24102;SDS011;12278;53.058;9.028;2023-05-10T07:35:21;9.18;;;8.07;;
24102;SDS011;12278;53.058;9.028;2023-05-10T07:39:25;11.70;;;8.23;;
24102;SDS011;12278;53.058;9.028;2023-05-10T07:43:35;9.65;;;8.32;;
24102;SDS011;12278;53.058;9.028;2023-05-10T07:47:35;9.63;;;7.95;;
24102;SDS011;12278;53.058;9.028;2023-05-10T07:51:36;9.18;;;8.13;;
24102;SDS011;12278;53.058;9.028;2023-05-10T07:55:37;10.27;;;7.53;;
24102;SDS011;12278;53.058;9.028;2023-05-10T07:59:38;8.32;;;7.43;;
24102;SDS011;12278;53.058;9.028;2023-05-10T08:03:38;10.05;;;8.07;;
24102;SDS011;12278;53.058;9.028;2023-05-10T08:07:39;9.13;;;8.13;;
24102;SDS011;12278;53.058;9.028;2023-05-10T08:43:47;7.88;;;6.90;;
24102;SDS011;12278;53.058;9.028;2023-05-10T08:47:49;8.30;;;7.50;;
24102;SDS011;12278;53.058;9.028;2023-05-10T08:51:52;7.75;;;6.95;;
24102;SDS011;12278;53.058;9.028;2023-05-10T08:55:55;7.30;;;6.60;;
24102;SDS011;12278;53.058;9.028;2023-05-10T08:59:57;6.95;;;5.57;;
24102;SDS011;12278;53.058;9.028;2023-05-10T09:03:59;4.90;;;4.43;;
24102;SDS011;12278;53.058;9.028;2023-05-10T09:08:00;7.30;;;4.90;;
24102;SDS011;12278;53.058;9.028;2023-05-10T09:12:00;5.47;;;4.97;;
24102;SDS011;12278;53.058;9.028;2023-05-10T09:16:01;6.32;;;5.78;;
24102;SDS011;12278;53.058;9.028;2023-05-10T09:20:03;6.00;;;5.50;;
24102;SDS011;12278;53.058;9.028;2023-05-10T09:24:07;6.45;;;5.88;;
24102;SDS011;12278;53.058;9.028;2023-05-10T09:28:09;6.00;;;5.07;;
24102;SDS011;12278;53.058;9.028;2023-05-10T09:32:12;3.90;;;3.60;;
24102;SDS011;12278;53.058;9.028;2023-05-10T09:36:18;6.10;;;4.13;;
24102;SDS011;12278;53.058;9.028;2023-05-10T09:40:21;4.47;;;3.45;;
24102;SDS011;12278;53.058;9.028;2023-05-10T09:44:25;2.92;;;2.60;;
24102;SDS011;12278;53.058;9.028;2023-05-10T09:48:26;3.25;;;2.90;;
24102;SDS011;12278;53.058;9.028;2023-05-10T09:52:27;6.63;;;3.00;;
24102;SDS011;12278;53.058;9.028;2023-05-10T09:56:34;4.10;;;2.65;;
24102;SDS011;12278;53.058;9.028;2023-05-10T10:00:36;2.65;;;2.45;;
24102;SDS011;12278;53.058;9.028;2023-05-10T10:04:41;2.88;;;2.50;;
24102;SDS011;12278;53.058;9.028;2023-05-10T10:08:42;2.80;;;2.60;;
24102;SDS011;12278;53.058;9.028;2023-05-10T10:12:43;3.20;;;2.83;;
24102;SDS011;12278;53.058;9.028;2023-05-10T10:16:44;2.83;;;2.63;;
24102;SDS011;12278;53.058;9.028;2023-05-10T10:20:45;4.43;;;2.85;;
24102;SDS011;12278;53.058;9.028;2023-05-10T10:24:46;3.85;;;3.15;;
24102;SDS011;12278;53.058;9.028;2023-05-10T10:37:08;3.70;;;2.97;;
24102;SDS011;12278;53.058;9.028;2023-05-10T10:41:09;3.20;;;2.78;;
24102;SDS011;12278;53.058;9.028;2023-05-10T10:45:12;3.10;;;2.80;;
24102;SDS011;12278;53.058;9.028;2023-05-10T10:49:15;2.33;;;2.13;;
24102;SDS011;12278;53.058;9.028;2023-05-10T10:53:27;2.28;;;2.03;;
24102;SDS011;12278;53.058;9.028;2023-05-10T10:57:33;2.22;;;2.03;;
24102;SDS011;12278;53.058;9.028;2023-05-10T11:01:41;2.10;;;1.90;;
24102;SDS011;12278;53.058;9.028;2023-05-10T11:05:50;2.17;;;1.98;;
24102;SDS011;12278;53.058;9.028;2023-05-10T11:10:03;2.80;;;2.50;;
24102;SDS011;12278;53.058;9.028;2023-05-10T11:14:06;3.20;;;2.38;;
24102;SDS011;12278;53.058;9.028;2023-05-10T11:22:18;4.20;;;2.50;;
24102;SDS011;12278;53.058;9.028;2023-05-10T11:26:19;3.35;;;3.03;;
24102;SDS011;12278;53.058;9.028;2023-05-10T11:30:23;5.20;;;2.88;;
24102;SDS011;12278;53.058;9.028;2023-05-10T11:38:29;3.72;;;2.80;;
24102;SDS011;12278;53.058;9.028;2023-05-10T11:42:33;2.72;;;2.53;;
24102;SDS011;12278;53.058;9.028;2023-05-10T11:46:33;3.00;;;2.58;;
24102;SDS011;12278;53.058;9.028;2023-05-10T11:50:36;4.45;;;3.35;;
24102;SDS011;12278;53.058;9.028;2023-05-10T11:54:37;3.67;;;2.55;;
24102;SDS011;12278;53.058;9.028;2023-05-10T11:58:38;3.70;;;2.58;;
24102;SDS011;12278;53.058;9.028;2023-05-10T12:02:39;2.65;;;2.25;;
24102;SDS011;12278;53.058;9.028;2023-05-10T12:06:40;2.25;;;2.05;;
24102;SDS011;12278;53.058;9.028;2023-05-10T12:10:41;2.30;;;2.10;;
24102;SDS011;12278;53.058;9.028;2023-05-10T12:14:42;2.40;;;2.20;;
24102;SDS011;12278;53.058;9.028;2023-05-10T12:18:43;2.58;;;2.30;;
24102;SDS011;12278;53.058;9.028;2023-05-10T12:22:49;2.72;;;2.53;;
24102;SDS011;12278;53.058;9.028;2023-05-10T12:26:51;1.75;;;1.65;;
24102;SDS011;12278;53.058;9.028;2023-05-10T12:30:52;1.25;;;1.15;;
24102;SDS011;12278;53.058;9.028;2023-05-10T12:34:54;1.02;;;0.93;;
24102;SDS011;12278;53.058;9.028;2023-05-10T12:39:01;1.35;;;0.80;;
24102;SDS011;12278;53.058;9.028;2023-05-10T12:43:04;0.70;;;0.70;;
24102;SDS011;12278;53.058;9.028;2023-05-10T12:47:05;0.82;;;0.75;;
24102;SDS011;12278;53.058;9.028;2023-05-10T12:51:06;1.65;;;0.70;;
24102;SDS011;12278;53.058;9.028;2023-05-10T12:55:11;1.23;;;1.08;;
24102;SDS011;12278;53.058;9.028;2023-05-10T12:59:12;2.25;;;1.20;;
24102;SDS011;12278;53.058;9.028;2023-05-10T13:03:13;1.23;;;0.90;;
24102;SDS011;12278;53.058;9.028;2023-05-10T13:07:14;1.95;;;1.75;;
24102;SDS011;12278;53.058;9.028;2023-05-10T13:11:15;1.50;;;1.40;;
24102;SDS011;12278;53.058;9.028;2023-05-10T13:15:16;1.35;;;1.25;;
24102;SDS011;12278;53.058;9.028;2023-05-10T13:19:17;1.08;;;0.98;;
24102;SDS011;12278;53.058;9.028;2023-05-10T13:23:18;1.00;;;1.00;;
24102;SDS011;12278;53.058;9.028;2023-05-10T13:27:19;1.23;;;1.10;;
24102;SDS011;12278;53.058;9.028;2023-05-10T13:31:19;1.30;;;1.20;;
24102;SDS011;12278;53.058;9.028;2023-05-10T13:35:20;1.48;;;1.38;;
24102;SDS011;12278;53.058;9.028;2023-05-10T13:39:21;2.45;;;2.25;;
24102;SDS011;12278;53.058;9.028;2023-05-10T13:43:23;2.30;;;2.10;;
24102;SDS011;12278;53.058;9.028;2023-05-10T13:47:24;2.05;;;1.95;;
24102;SDS011;12278;53.058;9.028;2023-05-10T13:51:24;1.98;;;1.88;;
24102;SDS011;12278;53.058;9.028;2023-05-10T13:55:25;3.70;;;2.10;;
24102;SDS011;12278;53.058;9.028;2023-05-10T13:59:26;2.40;;;2.20;;
24102;SDS011;12278;53.058;9.028;2023-05-10T14:03:26;2.25;;;2.05;;
24102;SDS011;12278;53.058;9.028;2023-05-10T14:07:27;2.92;;;2.40;;
24102;SDS011;12278;53.058;9.028;2023-05-10T14:11:28;2.53;;;2.33;;
24102;SDS011;12278;53.058;9.028;2023-05-10T14:15:28;2.95;;;2.65;;
24102;SDS011;12278;53.058;9.028;2023-05-10T14:19:29;2.60;;;2.40;;
24102;SDS011;12278;53.058;9.028;2023-05-10T14:23:32;2.90;;;2.67;;
24102;SDS011;12278;53.058;9.028;2023-05-10T14:27:32;2.40;;;2.20;;
24102;SDS011;12278;53.058;9.028;2023-05-10T14:31:33;3.60;;;1.73;;
24102;SDS011;12278;53.058;9.028;2023-05-10T14:35:34;1.52;;;1.42;;
24102;SDS011;12278;53.058;9.028;2023-05-10T14:39:35;2.13;;;1.92;;
24102;SDS011;12278;53.058;9.028;2023-05-10T14:43:36;2.22;;;2.03;;
24102;SDS011;12278;53.058;9.028;2023-05-10T14:47:38;3.55;;;2.17;;
24102;SDS011;12278;53.058;9.028;2023-05-10T14:51:39;2.58;;;2.00;;
24102;SDS011;12278;53.058;9.028;2023-05-10T14:55:39;2.47;;;2.20;;
24102;SDS011;12278;53.058;9.028;2023-05-10T14:59:40;3.72;;;1.92;;
24102;SDS011;12278;53.058;9.028;2023-05-10T15:03:41;2.45;;;2.17;;
24102;SDS011;12278;53.058;9.028;2023-05-10T15:07:42;3.22;;;2.08;;
24102;SDS011;12278;53.058;9.028;2023-05-10T15:11:43;2.97;;;1.83;;
24102;SDS011;12278;53.058;9.028;2023-05-10T15:15:44;2.20;;;2.00;;
24102;SDS011;12278;53.058;9.028;2023-05-10T15:19:45;3.00;;;1.92;;
24102;SDS011;12278;53.058;9.028;2023-05-10T15:23:45;1.35;;;1.25;;
24102;SDS011;12278;53.058;9.028;2023-05-10T15:27:46;1.88;;;1.27;;
24102;SDS011;12278;53.058;9.028;2023-05-10T15:31:47;1.50;;;1.40;;
24102;SDS011;12278;53.058;9.028;2023-05-10T15:35:48;1.70;;;1.60;;
24102;SDS011;12278;53.058;9.028;2023-05-10T15:39:49;1.95;;;1.40;;
24102;SDS011;12278;53.058;9.028;2023-05-10T15:43:49;1.92;;;1.77;;
24102;SDS011;12278;53.058;9.028;2023-05-10T15:47:50;1.98;;;1.77;;
24102;SDS011;12278;53.058;9.028;2023-05-10T15:51:51;2.28;;;1.80;;
24102;SDS011;12278;53.058;9.028;2023-05-10T15:55:52;2.17;;;1.77;;
24102;SDS011;12278;53.058;9.028;2023-05-10T15:59:52;1.80;;;1.70;;
24102;SDS011;12278;53.058;9.028;2023-05-10T16:03:53;1.33;;;1.25;;
24102;SDS011;12278;53.058;9.028;2023-05-10T16:07:54;2.08;;;1.88;;
24102;SDS011;12278;53.058;9.028;2023-05-10T16:11:54;2.67;;;1.80;;
24102;SDS011;12278;53.058;9.028;2023-05-10T16:15:55;2.03;;;1.92;;
24102;SDS011;12278;53.058;9.028;2023-05-10T16:19:57;2.00;;;1.80;;
24102;SDS011;12278;53.058;9.028;2023-05-10T16:23:58;2.95;;;2.08;;
24102;SDS011;12278;53.058;9.028;2023-05-10T16:28:00;3.40;;;1.58;;
24102;SDS011;12278;53.058;9.028;2023-05-10T16:32:00;1.83;;;1.50;;
24102;SDS011;12278;53.058;9.028;2023-05-10T16:36:01;1.40;;;1.00;;
24102;SDS011;12278;53.058;9.028;2023-05-10T16:40:02;1.20;;;1.15;;
24102;SDS011;12278;53.058;9.028;2023-05-10T16:44:03;3.22;;;1.27;;
24102;SDS011;12278;53.058;9.028;2023-05-10T16:48:04;1.55;;;1.27;;
24102;SDS011;12278;53.058;9.028;2023-05-10T16:52:05;1.73;;;1.15;;
24102;SDS011;12278;53.058;9.028;2023-05-10T16:56:06;1.15;;;1.15;;
24102;SDS011;12278;53.058;9.028;2023-05-10T17:00:06;0.80;;;0.80;;
24102;SDS011;12278;53.058;9.028;2023-05-10T17:04:07;0.70;;;0.70;;
24102;SDS011;12278;53.058;9.028;2023-05-10T17:08:08;0.85;;;0.70;;
24102;SDS011;12278;53.058;9.028;2023-05-10T17:12:09;1.10;;;0.70;;
24102;SDS011;12278;53.058;9.028;2023-05-10T17:16:10;2.65;;;1.20;;
24102;SDS011;12278;53.058;9.028;2023-05-10T17:20:11;3.05;;;1.58;;
24102;SDS011;12278;53.058;9.028;2023-05-10T17:24:12;3.90;;;1.95;;
24102;SDS011;12278;53.058;9.028;2023-05-10T17:28:13;1.98;;;1.85;;
24102;SDS011;12278;53.058;9.028;2023-05-10T17:32:13;2.17;;;1.98;;
24102;SDS011;12278;53.058;9.028;2023-05-10T17:36:14;1.80;;;1.65;;
24102;SDS011;12278;53.058;9.028;2023-05-10T17:40:15;2.70;;;2.33;;
24102;SDS011;12278;53.058;9.028;2023-05-10T17:44:16;2.10;;;1.90;;
24102;SDS011;12278;53.058;9.028;2023-05-10T17:48:16;3.40;;;1.90;;
24102;SDS011;12278;53.058;9.028;2023-05-10T17:52:17;2.00;;;1.80;;
24102;SDS011;12278;53.058;9.028;2023-05-10T17:56:18;2.25;;;1.92;;
24102;SDS011;12278;53.058;9.028;2023-05-10T18:00:18;3.85;;;2.47;;
24102;SDS011;12278;53.058;9.028;2023-05-10T18:04:19;2.25;;;1.80;;
24102;SDS011;12278;53.058;9.028;2023-05-10T18:08:21;2.78;;;1.98;;
24102;SDS011;12278;53.058;9.028;2023-05-10T18:12:25;3.63;;;2.38;;
24102;SDS011;12278;53.058;9.028;2023-05-10T18:16:26;2.58;;;2.38;;
24102;SDS011;12278;53.058;9.028;2023-05-10T18:20:27;2.33;;;2.08;;
24102;SDS011;12278;53.058;9.028;2023-05-10T18:24:27;2.10;;;1.75;;
24102;SDS011;12278;53.058;9.028;2023-05-10T18:28:28;2.05;;;1.60;;
24102;SDS011;12278;53.058;9.028;2023-05-10T18:32:29;1.75;;;1.65;;
24102;SDS011;12278;53.058;9.028;2023-05-10T18:36:30;2.75;;;1.70;;
24102;SDS011;12278;53.058;9.028;2023-05-10T18:40:32;5.35;;;2.00;;
24102;SDS011;12278;53.058;9.028;2023-05-10T18:44:32;1.70;;;1.58;;
24102;SDS011;12278;53.058;9.028;2023-05-10T18:48:33;2.10;;;1.67;;
24102;SDS011;12278;53.058;9.028;2023-05-10T18:52:34;1.73;;;1.63;;
24102;SDS011;12278;53.058;9.028;2023-05-10T18:56:37;1.73;;;1.50;;
24102;SDS011;12278;53.058;9.028;2023-05-10T19:00:43;1.73;;;1.60;;
24102;SDS011;12278;53.058;9.028;2023-05-10T19:04:43;1.92;;;1.80;;
24102;SDS011;12278;53.058;9.028;2023-05-10T19:08:45;2.75;;;1.88;;
24102;SDS011;12278;53.058;9.028;2023-05-10T19:12:45;2.67;;;1.80;;
24102;SDS011;12278;53.058;9.028;2023-05-10T19:16:46;1.65;;;1.55;;
24102;SDS011;12278;53.058;9.028;2023-05-10T19:20:47;3.63;;;1.90;;
24102;SDS011;12278;53.058;9.028;2023-05-10T19:24:47;1.65;;;1.55;;
24102;SDS011;12278;53.058;9.028;2023-05-10T19:28:51;2.08;;;1.95;;
24102;SDS011;12278;53.058;9.028;2023-05-10T19:32:52;4.15;;;2.22;;
24102;SDS011;12278;53.058;9.028;2023-05-10T19:36:54;3.03;;;2.33;;
24102;SDS011;12278;53.058;9.028;2023-05-10T19:40:54;3.63;;;2.50;;
24102;SDS011;12278;53.058;9.028;2023-05-10T19:44:58;2.33;;;2.15;;
24102;SDS011;12278;53.058;9.028;2023-05-10T19:48:58;3.50;;;2.63;;
24102;SDS011;12278;53.058;9.028;2023-05-10T19:52:59;4.10;;;2.90;;
24102;SDS011;12278;53.058;9.028;2023-05-10T19:57:00;2.60;;;2.40;;
24102;SDS011;12278;53.058;9.028;2023-05-10T20:01:00;3.28;;;2.72;;
24102;SDS011;12278;53.058;9.028;2023-05-10T20:05:01;4.43;;;2.85;;
24102;SDS011;12278;53.058;9.028;2023-05-10T20:09:02;3.58;;;3.17;;
24102;SDS011;12278;53.058;9.028;2023-05-10T20:13:03;3.95;;;3.55;;
24102;SDS011;12278;53.058;9.028;2023-05-10T20:17:04;4.50;;;3.50;;
24102;SDS011;12278;53.058;9.028;2023-05-10T20:21:05;3.92;;;3.33;;
24102;SDS011;12278;53.058;9.028;2023-05-10T20:25:06;4.90;;;3.72;;
24102;SDS011;12278;53.058;9.028;2023-05-10T20:29:07;4.28;;;3.88;;
24102;SDS011;12278;53.058;9.028;2023-05-10T20:33:08;4.00;;;3.60;;
24102;SDS011;12278;53.058;9.028;2023-05-10T20:37:09;4.43;;;3.97;;
24102;SDS011;12278;53.058;9.028;2023-05-10T20:41:09;4.43;;;3.97;;
24102;SDS011;12278;53.058;9.028;2023-05-10T20:45:10;4.38;;;3.83;;
24102;SDS011;12278;53.058;9.028;2023-05-10T20:49:11;4.72;;;4.25;;
24102;SDS011;12278;53.058;9.028;2023-05-10T20:53:12;5.45;;;4.55;;
24102;SDS011;12278;53.058;9.028;2023-05-10T20:57:18;4.75;;;4.07;;
24102;SDS011;12278;53.058;9.028;2023-05-10T21:01:19;5.68;;;4.22;;
24102;SDS011;12278;53.058;9.028;2023-05-10T21:05:19;5.32;;;4.60;;
24102;SDS011;12278;53.058;9.028;2023-05-10T21:09:20;4.35;;;3.92;;
24102;SDS011;12278;53.058;9.028;2023-05-10T21:13:21;4.32;;;3.90;;
24102;SDS011;12278;53.058;9.028;2023-05-10T21:17:21;4.97;;;4.47;;
24102;SDS011;12278;53.058;9.028;2023-05-10T21:21:22;5.30;;;3.90;;
24102;SDS011;12278;53.058;9.028;2023-05-10T21:25:22;5.13;;;4.07;;
24102;SDS011;12278;53.058;9.028;2023-05-10T21:29:24;5.03;;;4.53;;
24102;SDS011;12278;53.058;9.028;2023-05-10T21:33:25;6.28;;;4.85;;
24102;SDS011;12278;53.058;9.028;2023-05-10T21:37:25;5.57;;;4.72;;
24102;SDS011;12278;53.058;9.028;2023-05-10T21:41:26;5.55;;;4.93;;
24102;SDS011;12278;53.058;9.028;2023-05-10T21:45:27;5.18;;;4.15;;
24102;SDS011;12278;53.058;9.028;2023-05-10T21:49:31;7.43;;;4.45;;
24102;SDS011;12278;53.058;9.028;2023-05-10T21:53:32;6.38;;;4.38;;
24102;SDS011;12278;53.058;9.028;2023-05-10T21:57:34;5.78;;;4.68;;
24102;SDS011;12278;53.058;9.028;2023-05-10T22:01:35;5.40;;;4.65;;
24102;SDS011;12278;53.058;9.028;2023-05-10T22:05:36;5.88;;;4.63;;
24102;SDS011;12278;53.058;9.028;2023-05-10T22:09:36;5.18;;;4.22;;
24102;SDS011;12278;53.058;9.028;2023-05-10T22:13:37;5.38;;;4.60;;
24102;SDS011;12278;53.058;9.028;2023-05-10T22:17:38;5.13;;;4.63;;
24102;SDS011;12278;53.058;9.028;2023-05-10T22:21:39;5.28;;;4.50;;
24102;SDS011;12278;53.058;9.028;2023-05-10T22:25:40;6.32;;;4.55;;
24102;SDS011;12278;53.058;9.028;2023-05-10T22:29:41;6.53;;;4.97;;
24102;SDS011;12278;53.058;9.028;2023-05-10T22:33:41;5.90;;;5.05;;
24102;SDS011;12278;53.058;9.028;2023-05-10T22:37:42;5.13;;;4.30;;
24102;SDS011;12278;53.058;9.028;2023-05-10T22:41:42;5.82;;;4.30;;
24102;SDS011;12278;53.058;9.028;2023-05-10T22:45:43;6.18;;;4.43;;
24102;SDS011;12278;53.058;9.028;2023-05-10T22:49:44;5.15;;;4.65;;
24102;SDS011;12278;53.058;9.028;2023-05-10T22:53:44;6.30;;;5.22;;
24102;SDS011;12278;53.058;9.028;2023-05-10T22:57:45;5.30;;;4.80;;
24102;SDS011;12278;53.058;9.028;2023-05-10T23:01:46;6.25;;;5.65;;
24102;SDS011;12278;53.058;9.028;2023-05-10T23:05:47;7.10;;;5.32;;
24102;SDS011;12278;53.058;9.028;2023-05-10T23:09:48;8.68;;;6.03;;
24102;SDS011;12278;53.058;9.028;2023-05-10T23:13:49;6.25;;;5.55;;
24102;SDS011;12278;53.058;9.028;2023-05-10T23:17:50;7.35;;;6.18;;
24102;SDS011;12278;53.058;9.028;2023-05-10T23:21:51;6.65;;;5.95;;
24102;SDS011;12278;53.058;9.028;2023-05-10T23:25:52;7.60;;;6.80;;
24102;SDS011;12278;53.058;9.028;2023-05-10T23:29:53;7.18;;;6.25;;
24102;SDS011;12278;53.058;9.028;2023-05-10T23:33:55;6.38;;;5.72;;
24102;SDS011;12278;53.058;9.028;2023-05-10T23:37:55;8.50;;;6.70;;
24102;SDS011;12278;53.058;9.028;2023-05-10T23:41:56;7.28;;;6.57;;
24102;SDS011;12278;53.058;9.028;2023-05-10T23:45:57;8.07;;;7.13;;
24102;SDS011;12278;53.058;9.028;2023-05-10T23:49:58;7.47;;;6.78;;
24102;SDS011;12278;53.058;9.028;2023-05-10T23:53:58;7.68;;;6.88;;
24102;SDS011;12278;53.058;9.028;2023-05-10T23:57:59;7.68;;;6.85;;
